Dades meteomassalio
Diari Summary for Octubre 2, 2017 Units:  Metric    English   Both
« Previous Day
Next Day »
Diari Semanal Mensual Anual Personalitzat
  Maxima: Minima: Mijana:
Temperatura: 27.2 °C 14.4 °C 20.3 °C
Rosada: 17.2 °C 10.1 °C 13.9 °C
Humitat: 77 % 49 % 67 %
Velocitat del vent: 24.1 km/h 0.0 km/h 8.9 km/h
Racha vent: 24.1 km/h - -
Vent:- - SSW
Pressio: 1026.0 hPa 1022.9 hPa -
Pluja: 0.0 mm    
Historical Graphs
 
 
Tabular Data for Octubre 2, 2017
Time Temperature Dew Point Pressure Wind Wind Speed Wind Gust Humidity Rainfall Rate (Hourly) solar Conditions
00:03 19.4 °C 14.5 °C 1024.9 hPa SSW 16.7 km/h 16.7 km/h 73 % 0.0 mm 0.0 W/m2 CLR
00:08 18.9 °C 13.7 °C 1024.9 hPa SW 5.6 km/h 5.6 km/h 72 % 0.0 mm 0.0 W/m2 CLR
00:13 18.9 °C 13.9 °C 1024.6 hPa SSW 5.6 km/h 5.6 km/h 73 % 0.0 mm 0.0 W/m2 CLR
00:18 18.9 °C 13.9 °C 1024.6 hPa SW 7.4 km/h 7.4 km/h 73 % 0.0 mm 0.0 W/m2 CLR
00:23 18.9 °C 13.9 °C 1024.9 hPa Calm     73 % 0.0 mm 0.0 W/m2 CLR
00:28 18.9 °C 13.9 °C 1024.9 hPa SSW 9.3 km/h 9.3 km/h 73 % 0.0 mm 0.0 W/m2 CLR
00:33 18.3 °C 13.4 °C 1024.9 hPa SSW 7.4 km/h 7.4 km/h 73 % 0.0 mm 0.0 W/m2 CLR
00:38 18.3 °C 13.4 °C 1024.9 hPa SSW 5.6 km/h 5.6 km/h 73 % 0.0 mm 0.0 W/m2 CLR
00:43 18.3 °C 13.4 °C 1024.6 hPa SSW 7.4 km/h 7.4 km/h 73 % 0.0 mm 0.0 W/m2 CLR
00:48 18.3 °C 13.4 °C 1024.9 hPa SSW 5.6 km/h 5.6 km/h 73 % 0.0 mm 0.0 W/m2 CLR
00:53 18.3 °C 13.6 °C 1024.9 hPa SSW 13.0 km/h 13.0 km/h 74 % 0.0 mm 0.0 W/m2 CLR
00:58 18.3 °C 13.6 °C 1024.9 hPa South 5.6 km/h 5.6 km/h 74 % 0.0 mm 0.0 W/m2 CLR
01:03 18.3 °C 13.6 °C 1024.9 hPa SSW 5.6 km/h 5.6 km/h 74 % 0.0 mm 0.0 W/m2 CLR
01:08 17.8 °C 13.1 °C 1024.9 hPa SSW 7.4 km/h 7.4 km/h 74 % 0.0 mm 0.0 W/m2 CLR
01:13 17.8 °C 13.1 °C 1024.9 hPa SSW 9.3 km/h 9.3 km/h 74 % 0.0 mm 0.0 W/m2 CLR
01:18 17.8 °C 13.1 °C 1024.6 hPa SSW 13.0 km/h 13.0 km/h 74 % 0.0 mm 0.0 W/m2 CLR
01:23 17.8 °C 13.1 °C 1024.6 hPa South 13.0 km/h 13.0 km/h 74 % 0.0 mm 0.0 W/m2 CLR
01:28 17.8 °C 13.1 °C 1024.6 hPa SSW 13.0 km/h 13.0 km/h 74 % 0.0 mm 0.0 W/m2 CLR
01:33 18.3 °C 13.6 °C 1024.6 hPa SSW 9.3 km/h 9.3 km/h 74 % 0.0 mm 0.0 W/m2 CLR
01:38 18.3 °C 13.8 °C 1024.6 hPa SSW 11.3 km/h 11.3 km/h 75 % 0.0 mm 0.0 W/m2 CLR
01:43 18.3 °C 13.8 °C 1024.6 hPa South 13.0 km/h 13.0 km/h 75 % 0.0 mm 0.0 W/m2 CLR
01:48 18.3 °C 13.8 °C 1024.6 hPa South 14.8 km/h 14.8 km/h 75 % 0.0 mm 0.0 W/m2 CLR
01:53 18.3 °C 13.8 °C 1024.6 hPa South 13.0 km/h 13.0 km/h 75 % 0.0 mm 0.0 W/m2 CLR
01:58 18.3 °C 13.8 °C 1024.6 hPa South 4.8 km/h 4.8 km/h 75 % 0.0 mm 0.0 W/m2 CLR
02:03 18.3 °C 13.8 °C 1024.6 hPa Calm     75 % 0.0 mm 0.0 W/m2 CLR
02:08 17.8 °C 13.3 °C 1024.6 hPa SSW 9.3 km/h 9.3 km/h 75 % 0.0 mm 0.0 W/m2 CLR
02:13 17.8 °C 13.3 °C 1024.6 hPa Calm     75 % 0.0 mm 0.0 W/m2 CLR
02:18 17.2 °C 12.7 °C 1024.6 hPa SSE 5.6 km/h 5.6 km/h 75 % 0.0 mm 0.0 W/m2 CLR
02:23 17.2 °C 12.7 °C 1024.6 hPa South 9.7 km/h 9.7 km/h 75 % 0.0 mm 0.0 W/m2 CLR
02:28 17.2 °C 12.9 °C 1024.6 hPa South 7.4 km/h 7.4 km/h 76 % 0.0 mm 0.0 W/m2 CLR
02:33 17.2 °C 12.9 °C 1024.6 hPa South 5.6 km/h   76 % 0.0 mm 0.0 W/m2 CLR
02:38 17.2 °C 12.9 °C 1024.6 hPa Calm     76 % 0.0 mm 0.0 W/m2 CLR
02:43 17.8 °C 13.5 °C 1024.6 hPa SSE 3.7 km/h   76 % 0.0 mm 0.0 W/m2 CLR
02:48 17.8 °C 13.5 °C 1024.6 hPa South 5.6 km/h 5.6 km/h 76 % 0.0 mm 0.0 W/m2 CLR
02:53 17.8 °C 13.5 °C 1024.6 hPa South 3.7 km/h 3.7 km/h 76 % 0.0 mm 0.0 W/m2 CLR
02:58 17.8 °C 13.5 °C 1024.6 hPa Calm   1.3 km/h 76 % 0.0 mm 0.0 W/m2 CLR
03:03 17.8 °C 13.5 °C 1024.6 hPa South 13.0 km/h 13.0 km/h 76 % 0.0 mm 0.0 W/m2 CLR
03:08 17.2 °C 12.7 °C 1024.3 hPa South 7.4 km/h 7.4 km/h 75 % 0.0 mm 0.0 W/m2 CLR
03:13 17.8 °C 13.3 °C 1024.6 hPa SSW 11.1 km/h 11.1 km/h 75 % 0.0 mm 0.0 W/m2 CLR
03:18 17.8 °C 13.3 °C 1024.6 hPa South 13.0 km/h 13.0 km/h 75 % 0.0 mm 0.0 W/m2 CLR
03:23 17.8 °C 13.3 °C 1024.3 hPa SSW 13.0 km/h 13.0 km/h 75 % 0.0 mm 0.0 W/m2 CLR
03:33 18.3 °C 13.8 °C 1024.3 hPa South 13.0 km/h 13.0 km/h 75 % 0.0 mm 0.0 W/m2 CLR
03:38 18.3 °C 13.8 °C 1024.3 hPa SSW 16.7 km/h 16.7 km/h 75 % 0.0 mm 0.0 W/m2 CLR
03:43 18.3 °C 13.8 °C 1024.3 hPa SSW 11.1 km/h 11.1 km/h 75 % 0.0 mm 0.0 W/m2 CLR
03:48 18.3 °C 13.8 °C 1024.6 hPa SSW 9.7 km/h 9.7 km/h 75 % 0.0 mm 0.0 W/m2 CLR
03:53 17.8 °C 13.3 °C 1024.3 hPa SSW 9.3 km/h 9.3 km/h 75 % 0.0 mm 0.0 W/m2 CLR
03:59 17.8 °C 13.5 °C 1024.3 hPa SSW 13.0 km/h 13.0 km/h 76 % 0.0 mm 0.0 W/m2 CLR
04:04 17.8 °C 13.5 °C 1024.6 hPa SSW 11.1 km/h 11.1 km/h 76 % 0.0 mm 0.0 W/m2 CLR
04:09 17.8 °C 13.5 °C 1024.6 hPa SSW 11.1 km/h 11.1 km/h 76 % 0.0 mm 0.0 W/m2 CLR
04:14 17.8 °C 13.5 °C 1024.3 hPa SSW 3.7 km/h 3.7 km/h 76 % 0.0 mm 0.0 W/m2 CLR
04:19 17.8 °C 13.5 °C 1024.3 hPa SSW 11.1 km/h 11.1 km/h 76 % 0.0 mm 0.0 W/m2 CLR
04:24 17.8 °C 13.5 °C 1024.6 hPa SSW 12.9 km/h 12.9 km/h 76 % 0.0 mm 0.0 W/m2 CLR
04:29 17.8 °C 13.5 °C 1024.3 hPa SSW 9.3 km/h 9.3 km/h 76 % 0.0 mm 0.0 W/m2 CLR
04:34 17.8 °C 13.5 °C 1024.3 hPa SSW 11.1 km/h 11.1 km/h 76 % 0.0 mm 0.0 W/m2 CLR
04:39 17.8 °C 13.7 °C 1024.3 hPa SSW 5.6 km/h 5.6 km/h 77 % 0.0 mm 0.0 W/m2 CLR
04:44 17.8 °C 13.7 °C 1024.6 hPa Calm     77 % 0.0 mm 0.0 W/m2 CLR
04:49 17.8 °C 13.7 °C 1024.6 hPa SSW 11.1 km/h 11.1 km/h 77 % 0.0 mm 0.0 W/m2 CLR
04:54 17.8 °C 13.7 °C 1024.6 hPa SSW 5.6 km/h 5.6 km/h 77 % 0.0 mm 0.0 W/m2 CLR
04:59 17.8 °C 13.7 °C 1024.6 hPa SSW 13.0 km/h 13.0 km/h 77 % 0.0 mm 0.0 W/m2 CLR
05:04 17.8 °C 13.7 °C 1024.6 hPa SSW 14.8 km/h 14.8 km/h 77 % 0.0 mm 0.0 W/m2 CLR
05:09 17.8 °C 13.7 °C 1024.6 hPa South 16.7 km/h 16.7 km/h 77 % 0.0 mm 0.0 W/m2 CLR
05:14 17.8 °C 13.7 °C 1024.3 hPa SSW 14.8 km/h 14.8 km/h 77 % 0.0 mm 0.0 W/m2 CLR
05:19 17.8 °C 13.7 °C 1024.3 hPa SSW 9.7 km/h 9.7 km/h 77 % 0.0 mm 0.0 W/m2 CLR
05:23 17.8 °C 13.7 °C 1024.3 hPa South 11.1 km/h 11.1 km/h 77 % 0.0 mm 0.0 W/m2 CLR
05:24 17.8 °C 13.7 °C 1024.6 hPa SSW 14.8 km/h 14.8 km/h 77 % 0.0 mm 0.0 W/m2 CLR
05:29 17.8 °C 13.7 °C 1024.6 hPa SSW 14.8 km/h 14.8 km/h 77 % 0.0 mm 0.0 W/m2 CLR
05:32 17.8 °C 13.5 °C 1024.6 hPa SSW 16.7 km/h 16.7 km/h 76 % 0.0 mm 0.0 W/m2 CLR
05:37 18.3 °C 14.0 °C 1024.6 hPa SSW 18.5 km/h 18.5 km/h 76 % 0.0 mm 0.0 W/m2 CLR
05:42 18.3 °C 14.0 °C 1024.6 hPa South 11.1 km/h 11.1 km/h 76 % 0.0 mm 0.0 W/m2 CLR
05:47 17.8 °C 13.5 °C 1024.6 hPa South 11.1 km/h 11.1 km/h 76 % 0.0 mm 0.0 W/m2 CLR
05:52 17.8 °C 13.5 °C 1024.6 hPa SSW 11.1 km/h 11.1 km/h 76 % 0.0 mm 0.0 W/m2 CLR
05:57 17.8 °C 13.5 °C 1024.6 hPa SSW 16.7 km/h 16.7 km/h 76 % 0.0 mm 0.0 W/m2 CLR
06:02 18.3 °C 14.0 °C 1024.6 hPa SSW 16.7 km/h 16.7 km/h 76 % 0.0 mm 0.0 W/m2 CLR
06:07 18.3 °C 14.0 °C 1024.6 hPa SSW 9.3 km/h 9.3 km/h 76 % 0.0 mm 0.0 W/m2 CLR
06:12 18.3 °C 14.0 °C 1024.6 hPa SSW 18.5 km/h 18.5 km/h 76 % 0.0 mm 0.0 W/m2 CLR
06:17 18.3 °C 14.0 °C 1024.6 hPa SSW 11.1 km/h 11.1 km/h 76 % 0.0 mm 0.0 W/m2 CLR
06:22 18.3 °C 14.0 °C 1024.6 hPa SSW 13.0 km/h 13.0 km/h 76 % 0.0 mm 0.0 W/m2 CLR
06:27 17.8 °C 13.5 °C 1024.6 hPa SSW 12.9 km/h 12.9 km/h 76 % 0.0 mm 0.0 W/m2 CLR
06:32 18.3 °C 14.0 °C 1024.6 hPa SSW 11.3 km/h 11.3 km/h 76 % 0.0 mm 0.0 W/m2 CLR
06:37 18.3 °C 14.0 °C 1024.6 hPa SSW 9.3 km/h   76 % 0.0 mm 0.0 W/m2 CLR
06:42 18.3 °C 14.0 °C 1024.6 hPa SSW 11.1 km/h 11.1 km/h 76 % 0.0 mm 0.0 W/m2 CLR
06:47 18.3 °C 14.0 °C 1024.6 hPa South 9.3 km/h 9.3 km/h 76 % 0.0 mm 0.0 W/m2 CLR
06:57 18.3 °C 14.0 °C 1024.6 hPa Calm     76 % 0.0 mm 0.0 W/m2 CLR
07:02 18.3 °C 14.0 °C 1024.6 hPa South 20.4 km/h 20.4 km/h 76 % 0.0 mm 0.0 W/m2 CLR
07:07 18.3 °C 13.8 °C 1024.6 hPa SSW 14.8 km/h 14.8 km/h 75 % 0.0 mm 0.0 W/m2 CLR
07:12 18.3 °C 13.8 °C 1024.6 hPa SW 5.6 km/h 5.6 km/h 75 % 0.0 mm 0.0 W/m2 CLR
07:17 18.3 °C 13.8 °C 1024.6 hPa SSW 11.1 km/h 11.1 km/h 75 % 0.0 mm 0.0 W/m2 CLR
07:22 18.3 °C 13.8 °C 1024.6 hPa SSW 14.8 km/h 14.8 km/h 75 % 0.0 mm 0.0 W/m2 CLR
07:27 18.3 °C 13.8 °C 1024.6 hPa SSW 14.8 km/h 14.8 km/h 75 % 0.0 mm 0.0 W/m2 CLR
07:32 18.3 °C 13.8 °C 1024.9 hPa SSW 11.3 km/h 11.3 km/h 75 % 0.0 mm 0.0 W/m2 CLR
07:37 18.3 °C 13.8 °C 1024.9 hPa SW 13.0 km/h 13.0 km/h 75 % 0.0 mm 0.0 W/m2 CLR
07:42 18.3 °C 13.8 °C 1024.9 hPa SSW 11.1 km/h 11.1 km/h 75 % 0.0 mm 0.0 W/m2 CLR
07:47 18.3 °C 13.8 °C 1024.9 hPa SSW 18.5 km/h 18.5 km/h 75 % 0.0 mm 0.0 W/m2 OVC
07:53 18.3 °C 13.8 °C 1024.9 hPa SSW 11.1 km/h 11.1 km/h 75 % 0.0 mm 0.0 W/m2 OVC
07:58 18.3 °C 13.8 °C 1024.9 hPa South 11.3 km/h 11.3 km/h 75 % 0.0 mm 0.0 W/m2 OVC
08:03 18.3 °C 13.8 °C 1024.9 hPa SSW 13.0 km/h 13.0 km/h 75 % 0.0 mm 0.0 W/m2 OVC
08:08 18.3 °C 13.8 °C 1024.9 hPa South 16.7 km/h 16.7 km/h 75 % 0.0 mm 0.0 W/m2 OVC
08:13 18.3 °C 13.8 °C 1024.9 hPa South 14.8 km/h 14.8 km/h 75 % 0.0 mm 5.0 W/m2 OVC
08:18 18.3 °C 13.8 °C 1024.9 hPa SSW 7.4 km/h 7.4 km/h 75 % 0.0 mm 7.0 W/m2 BKN
08:19 18.3 °C 13.8 °C 1024.9 hPa South 1.9 km/h   75 % 0.0 mm 7.0 W/m2 BKN
08:24 18.3 °C 13.8 °C 1024.9 hPa SSW 13.0 km/h 13.0 km/h 75 % 0.0 mm 9.0 W/m2 BKN
08:29 18.3 °C 13.8 °C 1024.9 hPa South 11.1 km/h 11.1 km/h 75 % 0.0 mm 16.0 W/m2 BKN
08:34 18.3 °C 13.8 °C 1024.9 hPa SW 14.8 km/h 14.8 km/h 75 % 0.0 mm 21.0 W/m2 BKN
08:39 18.3 °C 13.8 °C 1024.9 hPa Calm     75 % 0.0 mm 30.0 W/m2 BKN
08:44 18.3 °C 13.8 °C 1024.9 hPa SSW 9.7 km/h 9.7 km/h 75 % 0.0 mm 40.0 W/m2 BKN
08:49 18.3 °C 13.8 °C 1024.9 hPa SSW 14.8 km/h 14.8 km/h 75 % 0.0 mm 49.0 W/m2 SCT
08:54 18.3 °C 13.8 °C 1024.9 hPa SSW 11.3 km/h 11.3 km/h 75 % 0.0 mm 62.0 W/m2 SCT
08:59 18.9 °C 14.3 °C 1024.9 hPa SSW 11.1 km/h 11.1 km/h 75 % 0.0 mm 88.0 W/m2 FEW
09:04 18.9 °C 14.3 °C 1025.3 hPa SSW 16.7 km/h 16.7 km/h 75 % 0.0 mm 84.0 W/m2 FEW
09:09 18.9 °C 14.3 °C 1025.3 hPa SW 19.3 km/h 19.3 km/h 75 % 0.0 mm 109.0 W/m2 CLR
09:14 18.9 °C 14.3 °C 1025.3 hPa SW 13.0 km/h 13.0 km/h 75 % 0.0 mm 118.0 W/m2 CLR
09:19 18.9 °C 14.3 °C 1025.3 hPa SW 9.3 km/h 9.3 km/h 75 % 0.0 mm 114.0 W/m2 CLR
09:24 18.9 °C 14.3 °C 1025.3 hPa SW 16.7 km/h 16.7 km/h 75 % 0.0 mm 134.0 W/m2 CLR
09:29 18.9 °C 14.3 °C 1025.3 hPa SW 11.1 km/h 11.1 km/h 75 % 0.0 mm 183.0 W/m2 CLR
09:34 19.4 °C 14.9 °C 1025.3 hPa SW 16.7 km/h 16.7 km/h 75 % 0.0 mm 162.0 W/m2 CLR
09:39 19.4 °C 14.9 °C 1025.3 hPa WSW 24.1 km/h 24.1 km/h 75 % 0.0 mm 190.0 W/m2 CLR
09:44 19.4 °C 14.9 °C 1025.6 hPa SW 14.8 km/h 14.8 km/h 75 % 0.0 mm 141.0 W/m2 CLR
09:49 19.4 °C 14.9 °C 1025.6 hPa SSW 16.7 km/h 16.7 km/h 75 % 0.0 mm 156.0 W/m2 CLR
09:54 19.4 °C 14.9 °C 1025.6 hPa SW 12.9 km/h 12.9 km/h 75 % 0.0 mm 137.0 W/m2 CLR
09:59 19.4 °C 14.9 °C 1025.6 hPa SW 20.4 km/h 20.4 km/h 75 % 0.0 mm 118.0 W/m2 CLR
10:04 19.4 °C 14.9 °C 1025.6 hPa WSW 9.3 km/h 9.3 km/h 75 % 0.0 mm 139.0 W/m2 CLR
10:09 19.4 °C 14.9 °C 1025.6 hPa SW 7.4 km/h 7.4 km/h 75 % 0.0 mm 200.0 W/m2 CLR
10:14 19.4 °C 14.9 °C 1026.0 hPa WSW 14.8 km/h 14.8 km/h 75 % 0.0 mm 202.0 W/m2 CLR
10:17 19.4 °C 14.9 °C 1026.0 hPa SW 14.8 km/h 14.8 km/h 75 % 0.0 mm 220.0 W/m2 CLR
10:22 20.0 °C 15.2 °C 1026.0 hPa WSW 18.5 km/h 18.5 km/h 74 % 0.0 mm 176.0 W/m2 CLR
10:27 19.4 °C 14.7 °C 1026.0 hPa SW 18.5 km/h 18.5 km/h 74 % 0.0 mm 195.0 W/m2 CLR
10:32 19.4 °C 14.7 °C 1026.0 hPa SW 20.4 km/h 20.4 km/h 74 % 0.0 mm 202.0 W/m2 CLR
10:37 20.0 °C 15.2 °C 1026.0 hPa SSW 7.4 km/h 7.4 km/h 74 % 0.0 mm 399.0 W/m2 CLR
10:42 20.0 °C 15.0 °C 1026.0 hPa SW 18.5 km/h 18.5 km/h 73 % 0.0 mm 220.0 W/m2 CLR
10:47 20.0 °C 15.0 °C 1026.0 hPa SW 14.8 km/h 14.8 km/h 73 % 0.0 mm 221.0 W/m2 CLR
10:52 20.0 °C 15.0 °C 1026.0 hPa SW 14.8 km/h 14.8 km/h 73 % 0.0 mm 225.0 W/m2 CLR
10:57 20.0 °C 15.0 °C 1026.0 hPa SSW 22.2 km/h 22.2 km/h 73 % 0.0 mm 302.0 W/m2 CLR
11:02 20.6 °C 15.3 °C 1026.0 hPa WSW 9.7 km/h 9.7 km/h 72 % 0.0 mm 257.0 W/m2 CLR
11:07 20.6 °C 15.3 °C 1026.0 hPa WSW 14.8 km/h 14.8 km/h 72 % 0.0 mm 148.0 W/m2 CLR
11:12 20.6 °C 15.6 °C 1026.0 hPa SW 7.4 km/h 7.4 km/h 73 % 0.0 mm 283.0 W/m2 CLR
11:17 20.6 °C 15.3 °C 1026.0 hPa SSW 3.7 km/h 3.7 km/h 72 % 0.0 mm 239.0 W/m2 CLR
11:22 20.6 °C 15.3 °C 1026.0 hPa SSW 18.5 km/h 18.5 km/h 72 % 0.0 mm 295.0 W/m2 CLR
11:27 20.6 °C 15.1 °C 1026.0 hPa SSW 14.8 km/h 14.8 km/h 71 % 0.0 mm 287.0 W/m2 CLR
11:32 20.6 °C 15.1 °C 1026.0 hPa SSW 14.8 km/h 14.8 km/h 71 % 0.0 mm 190.0 W/m2 CLR
11:37 20.6 °C 15.1 °C 1026.0 hPa SSW 14.8 km/h 14.8 km/h 71 % 0.0 mm 243.0 W/m2 CLR
11:42 20.6 °C 14.9 °C 1026.0 hPa South 24.1 km/h 24.1 km/h 70 % 0.0 mm 243.0 W/m2 CLR
11:47 21.1 °C 15.4 °C 1026.0 hPa South 22.2 km/h 22.2 km/h 70 % 0.0 mm 765.0 W/m2 CLR
11:48 21.1 °C 15.4 °C 1026.0 hPa South 20.4 km/h 20.4 km/h 70 % 0.0 mm 765.0 W/m2 CLR
11:53 21.7 °C 15.7 °C 1025.6 hPa SSW 22.5 km/h 22.5 km/h 69 % 0.0 mm 661.0 W/m2 CLR
11:58 21.7 °C 15.5 °C 1025.6 hPa South 6.4 km/h 6.4 km/h 68 % 0.0 mm 195.0 W/m2 CLR
12:03 21.7 °C 15.5 °C 1025.6 hPa SSW 9.3 km/h 9.3 km/h 68 % 0.0 mm 661.0 W/m2 CLR
12:08 22.2 °C 15.8 °C 1025.6 hPa WSW 20.4 km/h 20.4 km/h 67 % 0.0 mm 677.0 W/m2 CLR
12:13 22.8 °C 16.1 °C 1025.6 hPa South 11.3 km/h 11.3 km/h 66 % 0.0 mm 679.0 W/m2 CLR
12:18 22.8 °C 16.1 °C 1025.3 hPa SSW 18.5 km/h 18.5 km/h 66 % 0.0 mm 302.0 W/m2 CLR
12:23 22.2 °C 15.6 °C 1025.3 hPa SSW 7.4 km/h 7.4 km/h 66 % 0.0 mm 686.0 W/m2 CLR
12:28 22.8 °C 16.1 °C 1025.3 hPa South 14.8 km/h 14.8 km/h 66 % 0.0 mm 682.0 W/m2 CLR
12:33 22.8 °C 16.1 °C 1025.3 hPa South 14.8 km/h 14.8 km/h 66 % 0.0 mm 599.0 W/m2 CLR
12:38 23.3 °C 16.4 °C 1025.3 hPa SW 20.9 km/h 20.9 km/h 65 % 0.0 mm 631.0 W/m2 CLR
12:43 23.9 °C 16.4 °C 1025.3 hPa SW 16.7 km/h 16.7 km/h 63 % 0.0 mm 775.0 W/m2 CLR
12:48 23.3 °C 16.1 °C 1025.3 hPa Calm     64 % 0.0 mm 176.0 W/m2 CLR
12:53 23.3 °C 16.1 °C 1025.3 hPa South 1.6 km/h   64 % 0.0 mm 786.0 W/m2 CLR
12:58 23.9 °C 16.4 °C 1025.3 hPa WSW 13.0 km/h 13.0 km/h 63 % 0.0 mm 777.0 W/m2 CLR
13:03 24.4 °C 16.7 °C 1025.3 hPa SW 4.8 km/h 4.8 km/h 62 % 0.0 mm 766.0 W/m2 CLR
13:08 24.4 °C 16.2 °C 1024.9 hPa SSW 16.7 km/h 16.7 km/h 60 % 0.0 mm 729.0 W/m2 CLR
13:13 24.4 °C 16.4 °C 1024.9 hPa Calm     61 % 0.0 mm 816.0 W/m2 CLR
13:14 25.0 °C 17.2 °C 1024.9 hPa SW 18.5 km/h 18.5 km/h 62 % 0.0 mm 816.0 W/m2 CLR
13:19 25.0 °C 16.7 °C 1024.9 hPa South 20.4 km/h 20.4 km/h 60 % 0.0 mm 167.0 W/m2 CLR
13:24 23.9 °C 16.2 °C 1025.3 hPa SW 14.8 km/h 14.8 km/h 62 % 0.0 mm 722.0 W/m2 CLR
13:29 24.4 °C 16.4 °C 1024.9 hPa Calm     61 % 0.0 mm 758.0 W/m2 CLR
13:34 23.9 °C 15.7 °C 1024.9 hPa SW 18.5 km/h 18.5 km/h 60 % 0.0 mm 258.0 W/m2 CLR
13:39 23.9 °C 15.9 °C 1024.9 hPa SW 18.5 km/h 18.5 km/h 61 % 0.0 mm 258.0 W/m2 CLR
13:44 23.9 °C 16.2 °C 1024.9 hPa SSW 13.0 km/h 13.0 km/h 62 % 0.0 mm 352.0 W/m2 CLR
13:49 23.9 °C 15.9 °C 1024.9 hPa WSW 18.5 km/h 18.5 km/h 61 % 0.0 mm 731.0 W/m2 CLR
13:54 23.9 °C 15.7 °C 1024.9 hPa WSW 18.5 km/h 18.5 km/h 60 % 0.0 mm 153.0 W/m2 CLR
13:59 23.9 °C 15.4 °C 1024.9 hPa West 11.1 km/h 11.1 km/h 59 % 0.0 mm 223.0 W/m2 CLR
14:04 23.9 °C 15.4 °C 1024.9 hPa South 14.8 km/h 14.8 km/h 59 % 0.0 mm 684.0 W/m2 CLR
14:09 24.4 °C 15.9 °C 1024.9 hPa South 11.3 km/h 11.3 km/h 59 % 0.0 mm 700.0 W/m2 CLR
14:14 25.0 °C 16.2 °C 1024.6 hPa SW 11.1 km/h 11.1 km/h 58 % 0.0 mm 691.0 W/m2 CLR
14:19 25.0 °C 15.9 °C 1024.6 hPa SSW 20.4 km/h 20.4 km/h 57 % 0.0 mm 701.0 W/m2 CLR
14:24 25.6 °C 16.4 °C 1024.6 hPa SSW 11.1 km/h 11.1 km/h 57 % 0.0 mm 773.0 W/m2 CLR
14:29 25.6 °C 16.4 °C 1024.6 hPa South 16.7 km/h 16.7 km/h 57 % 0.0 mm 766.0 W/m2 CLR
14:34 25.6 °C 16.1 °C 1024.6 hPa South 22.2 km/h 22.2 km/h 56 % 0.0 mm 737.0 W/m2 CLR
14:39 26.1 °C 16.4 °C 1024.6 hPa Calm     55 % 0.0 mm 717.0 W/m2 CLR
14:44 26.1 °C 16.4 °C 1024.3 hPa SW 18.5 km/h 18.5 km/h 55 % 0.0 mm 701.0 W/m2 CLR
14:49 26.1 °C 16.4 °C 1024.3 hPa WSW 17.7 km/h 17.7 km/h 55 % 0.0 mm 740.0 W/m2 CLR
14:54 25.6 °C 15.8 °C 1024.6 hPa WSW 16.7 km/h 16.7 km/h 55 % 0.0 mm 668.0 W/m2 CLR
14:59 25.6 °C 15.6 °C 1024.3 hPa West 14.8 km/h 14.8 km/h 54 % 0.0 mm 668.0 W/m2 CLR
15:04 25.6 °C 15.6 °C 1024.6 hPa Calm     54 % 0.0 mm 234.0 W/m2 CLR
15:09 25.6 °C 15.6 °C 1024.3 hPa WSW 18.5 km/h 18.5 km/h 54 % 0.0 mm 650.0 W/m2 CLR
15:14 25.6 °C 15.6 °C 1024.3 hPa SSW 11.1 km/h 11.1 km/h 54 % 0.0 mm 167.0 W/m2 CLR
15:19 25.0 °C 15.3 °C 1024.3 hPa South 9.7 km/h 9.7 km/h 55 % 0.0 mm 768.0 W/m2 CLR
15:24 25.6 °C 15.6 °C 1024.3 hPa South 14.8 km/h 14.8 km/h 54 % 0.0 mm 737.0 W/m2 CLR
15:29 26.1 °C 15.8 °C 1024.3 hPa SW 18.5 km/h 18.5 km/h 53 % 0.0 mm 689.0 W/m2 CLR
15:34 26.7 °C 16.0 °C 1023.9 hPa SW 13.0 km/h 13.0 km/h 52 % 0.0 mm 686.0 W/m2 CLR
15:39 26.7 °C 15.7 °C 1023.9 hPa South 18.5 km/h 18.5 km/h 51 % 0.0 mm 677.0 W/m2 CLR
15:44 26.7 °C 15.7 °C 1023.9 hPa SSE 20.4 km/h 20.4 km/h 51 % 0.0 mm 654.0 W/m2 CLR
15:49 26.7 °C 16.0 °C 1023.9 hPa South 5.6 km/h   52 % 0.0 mm 679.0 W/m2 CLR
15:54 27.2 °C 16.2 °C 1023.9 hPa SE 18.5 km/h 18.5 km/h 51 % 0.0 mm 696.0 W/m2 CLR
15:59 27.2 °C 16.2 °C 1023.9 hPa SW 9.3 km/h 9.3 km/h 51 % 0.0 mm 708.0 W/m2 CLR
16:04 26.7 °C 16.0 °C 1023.9 hPa WSW 7.4 km/h 7.4 km/h 52 % 0.0 mm 731.0 W/m2 CLR
16:09 26.1 °C 15.2 °C 1023.9 hPa WNW 13.0 km/h 13.0 km/h 51 % 0.0 mm 169.0 W/m2 CLR
16:14 25.6 °C 14.9 °C 1023.9 hPa WSW 14.8 km/h 14.8 km/h 52 % 0.0 mm 276.0 W/m2 CLR
16:19 25.6 °C 15.3 °C 1023.6 hPa SW 5.6 km/h 5.6 km/h 53 % 0.0 mm 592.0 W/m2 CLR
16:24 26.1 °C 15.8 °C 1023.9 hPa West 13.0 km/h 13.0 km/h 53 % 0.0 mm 538.0 W/m2 CLR
16:29 26.1 °C 15.5 °C 1023.6 hPa WSW 11.1 km/h 11.1 km/h 52 % 0.0 mm 258.0 W/m2 CLR
16:34 25.6 °C 15.3 °C 1023.6 hPa West 5.6 km/h   53 % 0.0 mm 98.0 W/m2 CLR
16:39 25.6 °C 15.3 °C 1023.6 hPa WSW 5.6 km/h   53 % 0.0 mm 109.0 W/m2 CLR
16:44 26.1 °C 16.1 °C 1023.6 hPa Calm     54 % 0.0 mm 489.0 W/m2 CLR
16:49 25.6 °C 14.7 °C 1023.6 hPa SW 5.6 km/h   51 % 0.0 mm 468.0 W/m2 CLR
16:54 26.1 °C 15.2 °C 1023.6 hPa Calm     51 % 0.0 mm 308.0 W/m2 CLR
16:59 26.1 °C 14.9 °C 1023.2 hPa SSW 6.4 km/h 6.4 km/h 50 % 0.0 mm 383.0 W/m2 CLR
17:04 26.1 °C 14.9 °C 1023.2 hPa WSW 16.7 km/h 16.7 km/h 50 % 0.0 mm 174.0 W/m2 CLR
17:09 25.6 °C 14.4 °C 1023.2 hPa SW 14.8 km/h 14.8 km/h 50 % 0.0 mm 276.0 W/m2 CLR
17:14 26.1 °C 14.9 °C 1023.2 hPa SSW 7.4 km/h 7.4 km/h 50 % 0.0 mm 352.0 W/m2 CLR
17:19 26.1 °C 15.2 °C 1023.2 hPa SSW 7.4 km/h 7.4 km/h 51 % 0.0 mm 390.0 W/m2 CLR
17:20 26.1 °C 15.2 °C 1023.2 hPa SSW 9.3 km/h 9.3 km/h 51 % 0.0 mm 383.0 W/m2 CLR
17:25 26.1 °C 15.2 °C 1023.2 hPa SSW 12.9 km/h 12.9 km/h 51 % 0.0 mm 360.0 W/m2 CLR
17:30 26.7 °C 15.4 °C 1023.2 hPa Calm     50 % 0.0 mm 352.0 W/m2 CLR
17:35 26.7 °C 15.4 °C 1022.9 hPa SSW 16.1 km/h 16.1 km/h 50 % 0.0 mm 176.0 W/m2 CLR
17:40 26.7 °C 15.4 °C 1022.9 hPa SSW 11.1 km/h 11.1 km/h 50 % 0.0 mm 325.0 W/m2 CLR
17:45 26.1 °C 14.6 °C 1023.2 hPa WSW 7.4 km/h 7.4 km/h 49 % 0.0 mm 250.0 W/m2 CLR
17:50 26.1 °C 14.9 °C 1023.2 hPa WSW 8.0 km/h 8.0 km/h 50 % 0.0 mm 171.0 W/m2 CLR
17:55 26.1 °C 14.9 °C 1023.2 hPa WSW 3.7 km/h   50 % 0.0 mm 151.0 W/m2 CLR
18:00 25.6 °C 14.7 °C 1023.2 hPa WSW 5.6 km/h 5.6 km/h 51 % 0.0 mm 81.0 W/m2 CLR
18:05 25.0 °C 14.2 °C 1023.2 hPa SSW 9.3 km/h 9.3 km/h 51 % 0.0 mm 172.0 W/m2 CLR
18:10 25.0 °C 14.4 °C 1023.2 hPa SW 7.4 km/h 7.4 km/h 52 % 0.0 mm 167.0 W/m2 CLR
18:15 25.0 °C 14.4 °C 1023.2 hPa Calm     52 % 0.0 mm 153.0 W/m2 CLR
18:20 25.0 °C 14.4 °C 1023.2 hPa Calm     52 % 0.0 mm 127.0 W/m2 CLR
18:25 25.0 °C 14.2 °C 1023.2 hPa Calm     51 % 0.0 mm 134.0 W/m2 CLR
18:30 24.4 °C 13.7 °C 1023.2 hPa SW 7.4 km/h 7.4 km/h 51 % 0.0 mm 134.0 W/m2 CLR
18:35 24.4 °C 13.7 °C 1023.2 hPa Calm     51 % 0.0 mm 148.0 W/m2 CLR
18:40 24.4 °C 13.7 °C 1023.2 hPa WSW 5.6 km/h   51 % 0.0 mm 127.0 W/m2 CLR
18:45 25.0 °C 14.2 °C 1023.2 hPa Calm     51 % 0.0 mm 109.0 W/m2 CLR
18:50 25.0 °C 14.2 °C 1022.9 hPa SSW 4.8 km/h 4.8 km/h 51 % 0.0 mm 91.0 W/m2 CLR
18:55 24.4 °C 13.7 °C 1022.9 hPa SW 13.0 km/h 13.0 km/h 51 % 0.0 mm 42.0 W/m2 SCT
19:00 24.4 °C 13.9 °C 1022.9 hPa SW 9.3 km/h 9.3 km/h 52 % 0.0 mm 53.0 W/m2 SCT
19:05 24.4 °C 14.2 °C 1022.9 hPa Calm     53 % 0.0 mm 46.0 W/m2 SCT
19:10 23.9 °C 13.7 °C 1022.9 hPa Calm     53 % 0.0 mm 37.0 W/m2 BKN
19:15 23.3 °C 13.2 °C 1022.9 hPa Calm     53 % 0.0 mm 26.0 W/m2 BKN
19:20 22.8 °C 12.7 °C 1023.2 hPa Calm     53 % 0.0 mm 19.0 W/m2 BKN
19:25 22.2 °C 12.4 °C 1023.2 hPa Calm     54 % 0.0 mm 14.0 W/m2 BKN
19:30 21.7 °C 11.9 °C 1023.2 hPa Calm     54 % 0.0 mm 11.0 W/m2 BKN
19:35 21.1 °C 11.7 °C 1023.2 hPa Calm     55 % 0.0 mm 7.0 W/m2 BKN
19:40 20.6 °C 11.2 °C 1023.2 hPa Calm     55 % 0.0 mm 5.0 W/m2 OVC
19:45 20.0 °C 10.9 °C 1023.2 hPa Calm     56 % 0.0 mm 0.0 W/m2 OVC
19:50 20.0 °C 10.9 °C 1023.2 hPa Calm     56 % 0.0 mm 0.0 W/m2 CLR
19:55 19.4 °C 10.7 °C 1023.2 hPa Calm     57 % 0.0 mm 0.0 W/m2 CLR
20:00 19.4 °C 10.9 °C 1023.2 hPa Calm     58 % 0.0 mm 0.0 W/m2 CLR
20:05 18.9 °C 10.4 °C 1023.6 hPa Calm     58 % 0.0 mm 0.0 W/m2 CLR
20:10 18.9 °C 10.7 °C 1023.6 hPa Calm     59 % 0.0 mm 0.0 W/m2 CLR
20:15 18.9 °C 10.7 °C 1023.2 hPa Calm     59 % 0.0 mm 0.0 W/m2 CLR
20:20 18.3 °C 10.4 °C 1023.6 hPa Calm     60 % 0.0 mm 0.0 W/m2 CLR
20:25 18.3 °C 10.4 °C 1023.6 hPa Calm     60 % 0.0 mm 0.0 W/m2 CLR
20:30 18.3 °C 10.7 °C 1023.6 hPa Calm     61 % 0.0 mm 0.0 W/m2 CLR
20:35 18.3 °C 10.9 °C 1023.6 hPa Calm     62 % 0.0 mm 0.0 W/m2 CLR
20:40 18.3 °C 10.9 °C 1023.6 hPa Calm     62 % 0.0 mm 0.0 W/m2 CLR
20:46 17.8 °C 10.6 °C 1023.6 hPa Calm     63 % 0.0 mm 0.0 W/m2 CLR
20:51 17.8 °C 10.9 °C 1023.6 hPa Calm     64 % 0.0 mm 0.0 W/m2 CLR
20:56 17.8 °C 11.1 °C 1023.9 hPa Calm     65 % 0.0 mm 0.0 W/m2 CLR
21:01 17.2 °C 10.8 °C 1023.9 hPa Calm     66 % 0.0 mm 0.0 W/m2 CLR
21:06 17.2 °C 10.8 °C 1023.9 hPa Calm     66 % 0.0 mm 0.0 W/m2 CLR
21:11 17.2 °C 11.1 °C 1023.9 hPa Calm     67 % 0.0 mm 0.0 W/m2 CLR
21:16 17.2 °C 11.3 °C 1023.9 hPa Calm     68 % 0.0 mm 0.0 W/m2 CLR
21:21 17.2 °C 11.5 °C 1023.9 hPa Calm     69 % 0.0 mm 0.0 W/m2 CLR
21:26 16.7 °C 10.9 °C 1023.9 hPa Calm     69 % 0.0 mm 0.0 W/m2 CLR
21:31 16.7 °C 10.9 °C 1023.9 hPa Calm     69 % 0.0 mm 0.0 W/m2 CLR
21:36 16.7 °C 11.2 °C 1023.9 hPa Calm     70 % 0.0 mm 0.0 W/m2 CLR
21:41 16.7 °C 11.2 °C 1023.9 hPa Calm     70 % 0.0 mm 0.0 W/m2 CLR
21:46 16.1 °C 10.6 °C 1024.3 hPa Calm     70 % 0.0 mm 0.0 W/m2 CLR
21:51 16.1 °C 10.8 °C 1024.3 hPa Calm     71 % 0.0 mm 0.0 W/m2 CLR
21:56 16.7 °C 11.4 °C 1024.3 hPa Calm     71 % 0.0 mm 0.0 W/m2 CLR
22:01 17.2 °C 11.9 °C 1024.3 hPa Calm     71 % 0.0 mm 0.0 W/m2 CLR
22:06 17.2 °C 11.9 °C 1024.3 hPa Calm     71 % 0.0 mm 0.0 W/m2 CLR
22:11 17.2 °C 11.9 °C 1024.3 hPa Calm     71 % 0.0 mm 0.0 W/m2 CLR
22:16 16.7 °C 11.4 °C 1024.3 hPa Calm     71 % 0.0 mm 0.0 W/m2 CLR
22:21 16.7 °C 11.4 °C 1024.3 hPa Calm     71 % 0.0 mm 0.0 W/m2 CLR
22:26 16.7 °C 11.4 °C 1024.3 hPa Calm     71 % 0.0 mm 0.0 W/m2 CLR
22:31 16.7 °C 11.4 °C 1024.3 hPa Calm     71 % 0.0 mm 0.0 W/m2 CLR
22:36 16.7 °C 11.4 °C 1024.6 hPa Calm     71 % 0.0 mm 0.0 W/m2 CLR
22:41 16.7 °C 11.4 °C 1024.3 hPa Calm     71 % 0.0 mm 0.0 W/m2 CLR
22:46 16.7 °C 11.6 °C 1024.6 hPa Calm     72 % 0.0 mm 0.0 W/m2 CLR
22:51 16.1 °C 11.3 °C 1024.3 hPa Calm     73 % 0.0 mm 0.0 W/m2 CLR
22:56 16.1 °C 11.1 °C 1024.6 hPa Calm     72 % 0.0 mm 0.0 W/m2 CLR
23:01 16.1 °C 11.1 °C 1024.3 hPa Calm     72 % 0.0 mm 0.0 W/m2 CLR
23:06 16.1 °C 11.3 °C 1024.6 hPa Calm     73 % 0.0 mm 0.0 W/m2 CLR
23:11 15.6 °C 10.7 °C 1024.6 hPa Calm     73 % 0.0 mm 0.0 W/m2 CLR
23:16 15.6 °C 10.9 °C 1024.6 hPa Calm     74 % 0.0 mm 0.0 W/m2 CLR
23:21 15.6 °C 10.9 °C 1024.6 hPa Calm     74 % 0.0 mm 0.0 W/m2 CLR
23:26 15.0 °C 10.4 °C 1024.6 hPa Calm     74 % 0.0 mm 0.0 W/m2 CLR
23:31 15.0 °C 10.8 °C 1024.6 hPa Calm     76 % 0.0 mm 0.0 W/m2 CLR
23:36 15.0 °C 10.6 °C 1024.6 hPa Calm     75 % 0.0 mm 0.0 W/m2 CLR
23:41 14.4 °C 10.3 °C 1024.6 hPa Calm     76 % 0.0 mm 0.0 W/m2 CLR
23:46 14.4 °C 10.1 °C 1024.6 hPa Calm     75 % 0.0 mm 0.0 W/m2 CLR
23:51 14.4 °C 10.1 °C 1024.6 hPa Calm     75 % 0.0 mm 0.0 W/m2 CLR
23:56 14.4 °C 10.4 °C 1024.6 hPa Calm     77 % 0.0 mm 0.0 W/m2 CLR
Lo Temps de Massalio
Compliments of Weather Underground - 1.25 mb